sensor_id;sensor_type;location;lat;lon;timestamp;temperature;humidity
26262;DHT22;13988;52.446;13.280;2023-04-06T00:01:43;2.20;99.90
26262;DHT22;13988;52.446;13.280;2023-04-06T00:04:10;2.10;99.90
26262;DHT22;13988;52.446;13.280;2023-04-06T00:06:36;2.10;99.90
26262;DHT22;13988;52.446;13.280;2023-04-06T00:09:02;2.10;99.90
26262;DHT22;13988;52.446;13.280;2023-04-06T00:11:28;2.00;99.90
26262;DHT22;13988;52.446;13.280;2023-04-06T00:13:53;2.00;99.90
26262;DHT22;13988;52.446;13.280;2023-04-06T00:16:20;2.00;99.90
26262;DHT22;13988;52.446;13.280;2023-04-06T00:18:45;1.90;99.90
26262;DHT22;13988;52.446;13.280;2023-04-06T00:21:12;1.80;99.90
26262;DHT22;13988;52.446;13.280;2023-04-06T00:23:38;1.90;99.90
26262;DHT22;13988;52.446;13.280;2023-04-06T00:26:04;1.80;99.90
26262;DHT22;13988;52.446;13.280;2023-04-06T00:28:30;1.80;99.90
26262;DHT22;13988;52.446;13.280;2023-04-06T00:30:56;1.70;99.90
26262;DHT22;13988;52.446;13.280;2023-04-06T00:33:24;1.70;99.90
26262;DHT22;13988;52.446;13.280;2023-04-06T00:35:50;1.70;99.90
26262;DHT22;13988;52.446;13.280;2023-04-06T00:38:16;1.70;99.90
26262;DHT22;13988;52.446;13.280;2023-04-06T00:40:45;1.60;99.90
26262;DHT22;13988;52.446;13.280;2023-04-06T00:43:12;1.50;99.90
26262;DHT22;13988;52.446;13.280;2023-04-06T00:45:39;1.60;99.90
26262;DHT22;13988;52.446;13.280;2023-04-06T00:48:05;1.50;99.90
26262;DHT22;13988;52.446;13.280;2023-04-06T00:50:31;1.50;99.90
26262;DHT22;13988;52.446;13.280;2023-04-06T00:52:58;1.40;99.90
26262;DHT22;13988;52.446;13.280;2023-04-06T00:55:24;1.40;99.90
26262;DHT22;13988;52.446;13.280;2023-04-06T00:57:50;1.30;99.90
26262;DHT22;13988;52.446;13.280;2023-04-06T01:00:16;1.30;99.90
26262;DHT22;13988;52.446;13.280;2023-04-06T01:02:42;1.20;99.90
26262;DHT22;13988;52.446;13.280;2023-04-06T01:05:10;1.20;99.90
26262;DHT22;13988;52.446;13.280;2023-04-06T01:07:36;1.20;99.90
26262;DHT22;13988;52.446;13.280;2023-04-06T01:10:02;1.10;99.90
26262;DHT22;13988;52.446;13.280;2023-04-06T01:12:28;1.10;99.90
26262;DHT22;13988;52.446;13.280;2023-04-06T01:14:54;1.10;99.90
26262;DHT22;13988;52.446;13.280;2023-04-06T01:17:20;1.10;99.90
26262;DHT22;13988;52.446;13.280;2023-04-06T01:19:46;1.10;99.90
26262;DHT22;13988;52.446;13.280;2023-04-06T01:22:18;1.10;99.90
26262;DHT22;13988;52.446;13.280;2023-04-06T01:24:44;1.10;99.90
26262;DHT22;13988;52.446;13.280;2023-04-06T01:27:10;1.00;99.90
26262;DHT22;13988;52.446;13.280;2023-04-06T01:29:36;1.00;99.90
26262;DHT22;13988;52.446;13.280;2023-04-06T01:32:02;0.90;99.90
26262;DHT22;13988;52.446;13.280;2023-04-06T01:34:28;0.90;99.90
26262;DHT22;13988;52.446;13.280;2023-04-06T01:36:54;0.90;99.90
26262;DHT22;13988;52.446;13.280;2023-04-06T01:39:20;0.90;99.90
26262;DHT22;13988;52.446;13.280;2023-04-06T01:41:46;0.80;99.90
26262;DHT22;13988;52.446;13.280;2023-04-06T01:44:18;0.80;99.90
26262;DHT22;13988;52.446;13.280;2023-04-06T01:46:46;0.90;99.90
26262;DHT22;13988;52.446;13.280;2023-04-06T01:49:12;0.70;99.90
26262;DHT22;13988;52.446;13.280;2023-04-06T01:51:39;0.70;99.90
26262;DHT22;13988;52.446;13.280;2023-04-06T01:54:04;0.70;99.90
26262;DHT22;13988;52.446;13.280;2023-04-06T01:56:30;0.70;99.90
26262;DHT22;13988;52.446;13.280;2023-04-06T01:58:56;0.70;99.90
26262;DHT22;13988;52.446;13.280;2023-04-06T02:01:22;0.70;99.90
26262;DHT22;13988;52.446;13.280;2023-04-06T02:03:48;0.60;99.90
26262;DHT22;13988;52.446;13.280;2023-04-06T02:06:16;0.60;99.90
26262;DHT22;13988;52.446;13.280;2023-04-06T02:08:41;0.50;99.90
26262;DHT22;13988;52.446;13.280;2023-04-06T02:11:07;0.50;99.90
26262;DHT22;13988;52.446;13.280;2023-04-06T02:13:33;0.50;99.90
26262;DHT22;13988;52.446;13.280;2023-04-06T02:15:58;0.40;99.90
26262;DHT22;13988;52.446;13.280;2023-04-06T02:18:24;0.40;99.90
26262;DHT22;13988;52.446;13.280;2023-04-06T02:20:50;0.40;99.90
26262;DHT22;13988;52.446;13.280;2023-04-06T02:23:16;0.50;99.90
26262;DHT22;13988;52.446;13.280;2023-04-06T02:25:42;0.40;99.90
26262;DHT22;13988;52.446;13.280;2023-04-06T02:28:08;0.30;99.90
26262;DHT22;13988;52.446;13.280;2023-04-06T02:30:34;0.20;99.90
26262;DHT22;13988;52.446;13.280;2023-04-06T02:33:00;0.20;99.90
26262;DHT22;13988;52.446;13.280;2023-04-06T02:35:30;0.20;99.90
26262;DHT22;13988;52.446;13.280;2023-04-06T02:37:56;0.10;99.90
26262;DHT22;13988;52.446;13.280;2023-04-06T02:40:22;0.10;99.90
26262;DHT22;13988;52.446;13.280;2023-04-06T02:42:48;0.10;99.90
26262;DHT22;13988;52.446;13.280;2023-04-06T02:45:14;0.10;99.90
26262;DHT22;13988;52.446;13.280;2023-04-06T02:47:40;0.20;99.90
26262;DHT22;13988;52.446;13.280;2023-04-06T02:50:05;0.10;99.90
26262;DHT22;13988;52.446;13.280;2023-04-06T02:52:32;0.00;99.90
26262;DHT22;13988;52.446;13.280;2023-04-06T02:54:57;0.00;99.90
26262;DHT22;13988;52.446;13.280;2023-04-06T02:57:23;0.00;99.90
26262;DHT22;13988;52.446;13.280;2023-04-06T02:59:49;0.00;99.90
26262;DHT22;13988;52.446;13.280;2023-04-06T03:02:15;0.00;99.90
26262;DHT22;13988;52.446;13.280;2023-04-06T03:04:44;0.00;99.90
26262;DHT22;13988;52.446;13.280;2023-04-06T03:07:09;-0.10;99.90
26262;DHT22;13988;52.446;13.280;2023-04-06T03:09:37;-0.10;99.90
26262;DHT22;13988;52.446;13.280;2023-04-06T03:12:04;-0.10;99.90
26262;DHT22;13988;52.446;13.280;2023-04-06T03:14:38;0.10;99.90
26262;DHT22;13988;52.446;13.280;2023-04-06T03:17:04;-0.10;99.90
26262;DHT22;13988;52.446;13.280;2023-04-06T03:19:30;-0.20;99.90
26262;DHT22;13988;52.446;13.280;2023-04-06T03:21:55;-0.30;99.90
26262;DHT22;13988;52.446;13.280;2023-04-06T03:24:21;-0.10;99.90
26262;DHT22;13988;52.446;13.280;2023-04-06T03:26:47;-0.20;99.90
26262;DHT22;13988;52.446;13.280;2023-04-06T03:29:22;-0.20;99.90
26262;DHT22;13988;52.446;13.280;2023-04-06T03:31:48;-0.30;99.90
26262;DHT22;13988;52.446;13.280;2023-04-06T03:34:14;-0.20;99.90
26262;DHT22;13988;52.446;13.280;2023-04-06T03:36:39;-0.20;99.90
26262;DHT22;13988;52.446;13.280;2023-04-06T03:39:08;-0.30;99.90
26262;DHT22;13988;52.446;13.280;2023-04-06T03:41:34;-0.30;99.90
26262;DHT22;13988;52.446;13.280;2023-04-06T03:44:00;-0.40;99.90
26262;DHT22;13988;52.446;13.280;2023-04-06T03:46:26;-0.40;99.90
26262;DHT22;13988;52.446;13.280;2023-04-06T03:48:52;-0.40;99.90
26262;DHT22;13988;52.446;13.280;2023-04-06T03:51:18;-0.40;99.90
26262;DHT22;13988;52.446;13.280;2023-04-06T03:53:43;-0.40;99.90
26262;DHT22;13988;52.446;13.280;2023-04-06T03:56:09;-0.50;99.90
26262;DHT22;13988;52.446;13.280;2023-04-06T03:58:35;-0.50;99.90
26262;DHT22;13988;52.446;13.280;2023-04-06T04:01:01;-0.60;99.90
26262;DHT22;13988;52.446;13.280;2023-04-06T04:03:27;-0.60;99.90
26262;DHT22;13988;52.446;13.280;2023-04-06T04:05:53;-0.70;99.90
26262;DHT22;13988;52.446;13.280;2023-04-06T04:08:28;-0.60;99.90
26262;DHT22;13988;52.446;13.280;2023-04-06T04:10:54;-0.60;99.90
26262;DHT22;13988;52.446;13.280;2023-04-06T04:13:19;-0.50;99.90
26262;DHT22;13988;52.446;13.280;2023-04-06T04:15:49;-0.60;99.90
26262;DHT22;13988;52.446;13.280;2023-04-06T04:18:24;-0.60;99.90
26262;DHT22;13988;52.446;13.280;2023-04-06T04:20:49;-0.50;99.90
26262;DHT22;13988;52.446;13.280;2023-04-06T04:23:15;-0.60;99.90
26262;DHT22;13988;52.446;13.280;2023-04-06T04:25:43;-0.50;99.90
26262;DHT22;13988;52.446;13.280;2023-04-06T04:28:09;-0.60;99.90
26262;DHT22;13988;52.446;13.280;2023-04-06T04:30:34;-0.60;99.90
26262;DHT22;13988;52.446;13.280;2023-04-06T04:33:00;-0.60;99.90
26262;DHT22;13988;52.446;13.280;2023-04-06T04:35:27;-0.60;99.90
26262;DHT22;13988;52.446;13.280;2023-04-06T04:37:52;-0.60;99.90
26262;DHT22;13988;52.446;13.280;2023-04-06T04:40:18;-0.60;99.90
26262;DHT22;13988;52.446;13.280;2023-04-06T04:42:44;-0.60;99.90
26262;DHT22;13988;52.446;13.280;2023-04-06T04:45:10;-0.40;99.90
26262;DHT22;13988;52.446;13.280;2023-04-06T04:47:37;-0.60;99.90
26262;DHT22;13988;52.446;13.280;2023-04-06T04:50:10;-0.60;99.90
26262;DHT22;13988;52.446;13.280;2023-04-06T04:52:37;-0.70;99.90
26262;DHT22;13988;52.446;13.280;2023-04-06T04:55:03;-0.60;99.90
26262;DHT22;13988;52.446;13.280;2023-04-06T04:57:29;-0.60;99.90
26262;DHT22;13988;52.446;13.280;2023-04-06T04:59:55;-0.60;99.90
26262;DHT22;13988;52.446;13.280;2023-04-06T05:02:21;-0.60;99.90
26262;DHT22;13988;52.446;13.280;2023-04-06T05:04:47;-0.50;99.90
26262;DHT22;13988;52.446;13.280;2023-04-06T05:07:16;-0.50;99.90
26262;DHT22;13988;52.446;13.280;2023-04-06T05:09:43;-0.50;99.90
26262;DHT22;13988;52.446;13.280;2023-04-06T05:12:10;-0.50;99.90
26262;DHT22;13988;52.446;13.280;2023-04-06T05:14:35;-0.50;99.90
26262;DHT22;13988;52.446;13.280;2023-04-06T05:17:01;-0.50;99.90
26262;DHT22;13988;52.446;13.280;2023-04-06T05:19:27;-0.40;99.90
26262;DHT22;13988;52.446;13.280;2023-04-06T05:21:53;-0.30;99.90
26262;DHT22;13988;52.446;13.280;2023-04-06T05:24:19;-0.20;99.90
26262;DHT22;13988;52.446;13.280;2023-04-06T05:26:44;-0.20;99.90
26262;DHT22;13988;52.446;13.280;2023-04-06T05:29:11;-0.10;99.90
26262;DHT22;13988;52.446;13.280;2023-04-06T05:31:36;0.10;99.90
26262;DHT22;13988;52.446;13.280;2023-04-06T05:34:02;0.10;99.90
26262;DHT22;13988;52.446;13.280;2023-04-06T05:36:28;0.10;99.90
26262;DHT22;13988;52.446;13.280;2023-04-06T05:38:54;0.20;99.90
26262;DHT22;13988;52.446;13.280;2023-04-06T05:41:21;0.20;99.90
26262;DHT22;13988;52.446;13.280;2023-04-06T05:43:47;0.30;99.90
26262;DHT22;13988;52.446;13.280;2023-04-06T05:46:13;0.30;99.90
26262;DHT22;13988;52.446;13.280;2023-04-06T05:48:38;0.40;99.90
26262;DHT22;13988;52.446;13.280;2023-04-06T05:51:04;0.50;99.90
26262;DHT22;13988;52.446;13.280;2023-04-06T05:53:31;0.70;99.90
26262;DHT22;13988;52.446;13.280;2023-04-06T05:56:00;1.00;99.90
26262;DHT22;13988;52.446;13.280;2023-04-06T05:58:26;1.20;99.90
26262;DHT22;13988;52.446;13.280;2023-04-06T06:00:59;1.80;99.90
26262;DHT22;13988;52.446;13.280;2023-04-06T06:03:26;2.40;99.90
26262;DHT22;13988;52.446;13.280;2023-04-06T06:05:52;3.90;99.90
26262;DHT22;13988;52.446;13.280;2023-04-06T06:08:18;5.20;99.90
26262;DHT22;13988;52.446;13.280;2023-04-06T06:10:43;5.90;99.90
26262;DHT22;13988;52.446;13.280;2023-04-06T06:13:09;7.20;99.90
26262;DHT22;13988;52.446;13.280;2023-04-06T06:15:35;8.00;99.90
26262;DHT22;13988;52.446;13.280;2023-04-06T06:18:00;8.60;99.90
26262;DHT22;13988;52.446;13.280;2023-04-06T06:20:27;6.20;99.90
26262;DHT22;13988;52.446;13.280;2023-04-06T06:22:53;5.70;99.90
26262;DHT22;13988;52.446;13.280;2023-04-06T06:25:18;5.30;99.90
26262;DHT22;13988;52.446;13.280;2023-04-06T06:27:44;4.90;99.90
26262;DHT22;13988;52.446;13.280;2023-04-06T06:30:10;4.80;99.90
26262;DHT22;13988;52.446;13.280;2023-04-06T06:32:36;5.20;99.90
26262;DHT22;13988;52.446;13.280;2023-04-06T06:35:02;5.00;99.90
26262;DHT22;13988;52.446;13.280;2023-04-06T06:37:28;4.50;99.90
26262;DHT22;13988;52.446;13.280;2023-04-06T06:39:53;4.60;99.90
26262;DHT22;13988;52.446;13.280;2023-04-06T06:42:19;4.60;99.90
26262;DHT22;13988;52.446;13.280;2023-04-06T06:44:45;4.40;99.90
26262;DHT22;13988;52.446;13.280;2023-04-06T06:47:11;4.80;99.90
26262;DHT22;13988;52.446;13.280;2023-04-06T06:49:37;4.60;99.90
26262;DHT22;13988;52.446;13.280;2023-04-06T06:52:02;5.00;99.90
26262;DHT22;13988;52.446;13.280;2023-04-06T06:54:28;4.90;99.90
26262;DHT22;13988;52.446;13.280;2023-04-06T06:56:54;5.10;99.90
26262;DHT22;13988;52.446;13.280;2023-04-06T06:59:20;4.90;99.90
26262;DHT22;13988;52.446;13.280;2023-04-06T07:01:46;4.90;99.90
26262;DHT22;13988;52.446;13.280;2023-04-06T07:04:12;4.70;99.90
26262;DHT22;13988;52.446;13.280;2023-04-06T07:06:37;4.60;99.90
26262;DHT22;13988;52.446;13.280;2023-04-06T07:09:03;4.80;99.90
26262;DHT22;13988;52.446;13.280;2023-04-06T07:11:32;4.80;99.90
26262;DHT22;13988;52.446;13.280;2023-04-06T07:13:58;5.10;99.90
26262;DHT22;13988;52.446;13.280;2023-04-06T07:16:23;5.30;99.90
26262;DHT22;13988;52.446;13.280;2023-04-06T07:18:49;5.50;99.90
26262;DHT22;13988;52.446;13.280;2023-04-06T07:21:15;5.80;99.90
26262;DHT22;13988;52.446;13.280;2023-04-06T07:23:40;6.10;99.90
26262;DHT22;13988;52.446;13.280;2023-04-06T07:26:06;6.20;99.90
26262;DHT22;13988;52.446;13.280;2023-04-06T07:28:32;6.20;99.90
26262;DHT22;13988;52.446;13.280;2023-04-06T07:30:57;5.80;99.90
26262;DHT22;13988;52.446;13.280;2023-04-06T07:33:23;5.90;99.90
26262;DHT22;13988;52.446;13.280;2023-04-06T07:35:49;6.20;99.90
26262;DHT22;13988;52.446;13.280;2023-04-06T07:38:14;6.20;99.90
26262;DHT22;13988;52.446;13.280;2023-04-06T07:40:40;6.00;99.90
26262;DHT22;13988;52.446;13.280;2023-04-06T07:43:06;6.10;99.90
26262;DHT22;13988;52.446;13.280;2023-04-06T07:45:31;6.20;99.90
26262;DHT22;13988;52.446;13.280;2023-04-06T07:47:57;6.70;99.90
26262;DHT22;13988;52.446;13.280;2023-04-06T07:50:23;6.70;99.90
26262;DHT22;13988;52.446;13.280;2023-04-06T07:52:49;7.10;99.90
26262;DHT22;13988;52.446;13.280;2023-04-06T07:55:14;6.70;99.90
26262;DHT22;13988;52.446;13.280;2023-04-06T07:57:40;6.50;99.90
26262;DHT22;13988;52.446;13.280;2023-04-06T08:00:06;7.20;99.90
26262;DHT22;13988;52.446;13.280;2023-04-06T08:02:34;7.20;99.90
26262;DHT22;13988;52.446;13.280;2023-04-06T08:05:00;6.90;99.90
26262;DHT22;13988;52.446;13.280;2023-04-06T08:07:26;6.80;99.90
26262;DHT22;13988;52.446;13.280;2023-04-06T08:09:51;7.30;99.90
26262;DHT22;13988;52.446;13.280;2023-04-06T08:12:17;7.50;99.90
26262;DHT22;13988;52.446;13.280;2023-04-06T08:14:43;7.30;99.90
26262;DHT22;13988;52.446;13.280;2023-04-06T08:17:08;7.40;99.90
26262;DHT22;13988;52.446;13.280;2023-04-06T08:19:35;7.20;99.90
26262;DHT22;13988;52.446;13.280;2023-04-06T08:22:00;7.20;99.90
26262;DHT22;13988;52.446;13.280;2023-04-06T08:24:26;7.40;99.90
26262;DHT22;13988;52.446;13.280;2023-04-06T08:26:52;7.10;99.90
26262;DHT22;13988;52.446;13.280;2023-04-06T08:29:18;7.20;99.90
26262;DHT22;13988;52.446;13.280;2023-04-06T08:31:44;7.60;99.90
26262;DHT22;13988;52.446;13.280;2023-04-06T08:34:09;7.10;99.90
26262;DHT22;13988;52.446;13.280;2023-04-06T08:36:35;7.60;99.90
26262;DHT22;13988;52.446;13.280;2023-04-06T08:39:01;7.60;99.90
26262;DHT22;13988;52.446;13.280;2023-04-06T08:41:30;7.60;99.90
26262;DHT22;13988;52.446;13.280;2023-04-06T08:44:01;7.60;99.90
26262;DHT22;13988;52.446;13.280;2023-04-06T08:46:28;8.00;99.90
26262;DHT22;13988;52.446;13.280;2023-04-06T08:48:58;7.80;99.90
26262;DHT22;13988;52.446;13.280;2023-04-06T08:51:25;8.20;99.80
26262;DHT22;13988;52.446;13.280;2023-04-06T08:53:56;8.30;99.90
26262;DHT22;13988;52.446;13.280;2023-04-06T08:56:23;8.30;99.90
26262;DHT22;13988;52.446;13.280;2023-04-06T08:58:49;7.80;99.90
26262;DHT22;13988;52.446;13.280;2023-04-06T09:01:20;7.80;99.90
26262;DHT22;13988;52.446;13.280;2023-04-06T09:03:46;7.90;99.90
26262;DHT22;13988;52.446;13.280;2023-04-06T09:06:14;8.00;99.90
26262;DHT22;13988;52.446;13.280;2023-04-06T09:08:40;7.80;99.90
26262;DHT22;13988;52.446;13.280;2023-04-06T09:11:07;8.20;99.60
26262;DHT22;13988;52.446;13.280;2023-04-06T09:13:53;8.40;97.60
26262;DHT22;13988;52.446;13.280;2023-04-06T09:16:20;8.30;96.90
26262;DHT22;13988;52.446;13.280;2023-04-06T09:18:47;8.50;95.30
26262;DHT22;13988;52.446;13.280;2023-04-06T09:21:16;8.40;97.00
26262;DHT22;13988;52.446;13.280;2023-04-06T09:23:41;8.60;96.40
26262;DHT22;13988;52.446;13.280;2023-04-06T09:26:12;8.50;94.50
26262;DHT22;13988;52.446;13.280;2023-04-06T09:28:48;8.70;92.40
26262;DHT22;13988;52.446;13.280;2023-04-06T09:31:29;8.80;93.00
26262;DHT22;13988;52.446;13.280;2023-04-06T09:33:56;8.80;93.40
26262;DHT22;13988;52.446;13.280;2023-04-06T09:36:32;8.90;92.20
26262;DHT22;13988;52.446;13.280;2023-04-06T09:39:02;8.60;91.70
26262;DHT22;13988;52.446;13.280;2023-04-06T09:41:31;8.60;93.90
26262;DHT22;13988;52.446;13.280;2023-04-06T09:44:12;8.70;93.20
26262;DHT22;13988;52.446;13.280;2023-04-06T09:46:44;8.80;92.30
26262;DHT22;13988;52.446;13.280;2023-04-06T09:49:11;8.80;88.80
26262;DHT22;13988;52.446;13.280;2023-04-06T09:52:03;9.00;92.80
26262;DHT22;13988;52.446;13.280;2023-04-06T09:54:29;8.60;90.20
26262;DHT22;13988;52.446;13.280;2023-04-06T09:57:15;8.70;91.90
26262;DHT22;13988;52.446;13.280;2023-04-06T10:02:21;8.90;89.00
26262;DHT22;13988;52.446;13.280;2023-04-06T10:04:55;8.90;90.30
26262;DHT22;13988;52.446;13.280;2023-04-06T10:07:22;8.70;82.90
26262;DHT22;13988;52.446;13.280;2023-04-06T10:09:49;8.90;85.30
26262;DHT22;13988;52.446;13.280;2023-04-06T10:12:15;9.10;85.70
26262;DHT22;13988;52.446;13.280;2023-04-06T10:14:42;9.20;87.20
26262;DHT22;13988;52.446;13.280;2023-04-06T10:17:09;9.10;86.40
26262;DHT22;13988;52.446;13.280;2023-04-06T10:22:41;9.40;84.10
26262;DHT22;13988;52.446;13.280;2023-04-06T10:25:08;9.50;78.20
26262;DHT22;13988;52.446;13.280;2023-04-06T10:27:34;9.20;75.00
26262;DHT22;13988;52.446;13.280;2023-04-06T10:30:02;9.70;70.90
26262;DHT22;13988;52.446;13.280;2023-04-06T10:32:33;9.80;71.50
26262;DHT22;13988;52.446;13.280;2023-04-06T10:35:09;9.30;70.10
26262;DHT22;13988;52.446;13.280;2023-04-06T10:37:53;9.60;74.60
26262;DHT22;13988;52.446;13.280;2023-04-06T10:40:23;9.80;69.80
26262;DHT22;13988;52.446;13.280;2023-04-06T10:42:50;10.00;70.00
26262;DHT22;13988;52.446;13.280;2023-04-06T10:45:26;10.20;69.20
26262;DHT22;13988;52.446;13.280;2023-04-06T10:47:56;10.60;66.70
26262;DHT22;13988;52.446;13.280;2023-04-06T10:50:22;10.60;65.40
26262;DHT22;13988;52.446;13.280;2023-04-06T10:53:02;10.50;67.20
26262;DHT22;13988;52.446;13.280;2023-04-06T10:55:29;10.50;66.10
26262;DHT22;13988;52.446;13.280;2023-04-06T10:57:55;10.70;68.00
26262;DHT22;13988;52.446;13.280;2023-04-06T11:00:21;10.70;67.30
26262;DHT22;13988;52.446;13.280;2023-04-06T11:02:46;10.30;65.30
26262;DHT22;13988;52.446;13.280;2023-04-06T11:05:13;10.20;63.50
26262;DHT22;13988;52.446;13.280;2023-04-06T11:07:40;10.80;68.90
26262;DHT22;13988;52.446;13.280;2023-04-06T11:10:07;10.50;57.90
26262;DHT22;13988;52.446;13.280;2023-04-06T11:12:33;10.90;65.10
26262;DHT22;13988;52.446;13.280;2023-04-06T11:15:01;10.80;61.00
26262;DHT22;13988;52.446;13.280;2023-04-06T11:17:31;10.30;59.70
26262;DHT22;13988;52.446;13.280;2023-04-06T11:19:57;10.70;62.00
26262;DHT22;13988;52.446;13.280;2023-04-06T11:22:24;10.70;60.00
26262;DHT22;13988;52.446;13.280;2023-04-06T11:24:50;10.50;60.20
26262;DHT22;13988;52.446;13.280;2023-04-06T11:27:17;10.10;60.70
26262;DHT22;13988;52.446;13.280;2023-04-06T11:29:44;10.00;57.80
26262;DHT22;13988;52.446;13.280;2023-04-06T11:32:20;10.80;65.40
26262;DHT22;13988;52.446;13.280;2023-04-06T11:34:47;11.10;60.00
26262;DHT22;13988;52.446;13.280;2023-04-06T11:37:13;12.30;63.00
26262;DHT22;13988;52.446;13.280;2023-04-06T11:39:48;11.00;62.50
26262;DHT22;13988;52.446;13.280;2023-04-06T11:42:28;12.50;56.00
26262;DHT22;13988;52.446;13.280;2023-04-06T11:44:59;12.70;53.80
26262;DHT22;13988;52.446;13.280;2023-04-06T11:47:43;13.20;52.20
26262;DHT22;13988;52.446;13.280;2023-04-06T11:50:13;16.00;51.20
26262;DHT22;13988;52.446;13.280;2023-04-06T11:52:42;13.40;47.60
26262;DHT22;13988;52.446;13.280;2023-04-06T11:55:16;14.10;55.40
26262;DHT22;13988;52.446;13.280;2023-04-06T11:57:43;15.40;49.90
26262;DHT22;13988;52.446;13.280;2023-04-06T12:00:10;14.90;47.30
26262;DHT22;13988;52.446;13.280;2023-04-06T12:02:37;14.40;50.10
26262;DHT22;13988;52.446;13.280;2023-04-06T12:05:04;14.60;44.60
26262;DHT22;13988;52.446;13.280;2023-04-06T12:07:31;13.90;46.80
26262;DHT22;13988;52.446;13.280;2023-04-06T12:09:58;13.90;47.70
26262;DHT22;13988;52.446;13.280;2023-04-06T12:12:24;12.60;48.50
26262;DHT22;13988;52.446;13.280;2023-04-06T12:14:50;12.60;46.80
26262;DHT22;13988;52.446;13.280;2023-04-06T12:17:15;14.00;48.30
26262;DHT22;13988;52.446;13.280;2023-04-06T12:19:41;15.00;45.40
26262;DHT22;13988;52.446;13.280;2023-04-06T12:22:08;14.90;45.70
26262;DHT22;13988;52.446;13.280;2023-04-06T12:24:33;14.60;48.30
26262;DHT22;13988;52.446;13.280;2023-04-06T12:26:59;16.90;47.50
26262;DHT22;13988;52.446;13.280;2023-04-06T12:29:25;15.20;46.80
26262;DHT22;13988;52.446;13.280;2023-04-06T12:31:51;13.00;48.70
26262;DHT22;13988;52.446;13.280;2023-04-06T12:34:17;15.10;50.70
26262;DHT22;13988;52.446;13.280;2023-04-06T12:36:43;14.40;47.80
26262;DHT22;13988;52.446;13.280;2023-04-06T12:39:08;14.10;47.50
26262;DHT22;13988;52.446;13.280;2023-04-06T12:41:34;13.60;50.30
26262;DHT22;13988;52.446;13.280;2023-04-06T12:44:00;15.10;46.90
26262;DHT22;13988;52.446;13.280;2023-04-06T12:46:26;16.70;49.10
26262;DHT22;13988;52.446;13.280;2023-04-06T12:48:52;16.20;44.20
26262;DHT22;13988;52.446;13.280;2023-04-06T12:51:22;16.70;44.60
26262;DHT22;13988;52.446;13.280;2023-04-06T12:53:48;15.00;43.50
26262;DHT22;13988;52.446;13.280;2023-04-06T12:56:15;16.70;44.90
26262;DHT22;13988;52.446;13.280;2023-04-06T12:58:42;16.80;43.20
26262;DHT22;13988;52.446;13.280;2023-04-06T13:01:08;15.60;43.60
26262;DHT22;13988;52.446;13.280;2023-04-06T13:03:34;16.20;45.50
26262;DHT22;13988;52.446;13.280;2023-04-06T13:06:00;15.80;45.10
26262;DHT22;13988;52.446;13.280;2023-04-06T13:08:26;16.70;44.20
26262;DHT22;13988;52.446;13.280;2023-04-06T13:10:53;15.10;45.90
26262;DHT22;13988;52.446;13.280;2023-04-06T13:13:25;15.00;44.70
26262;DHT22;13988;52.446;13.280;2023-04-06T13:15:58;14.60;44.80
26262;DHT22;13988;52.446;13.280;2023-04-06T13:18:24;14.90;47.40
26262;DHT22;13988;52.446;13.280;2023-04-06T13:20:50;15.20;49.30
26262;DHT22;13988;52.446;13.280;2023-04-06T13:23:16;16.60;50.00
26262;DHT22;13988;52.446;13.280;2023-04-06T13:25:42;18.50;42.90
26262;DHT22;13988;52.446;13.280;2023-04-06T13:28:08;15.80;40.70
26262;DHT22;13988;52.446;13.280;2023-04-06T13:30:34;15.70;44.30
26262;DHT22;13988;52.446;13.280;2023-04-06T13:33:01;16.10;46.30
26262;DHT22;13988;52.446;13.280;2023-04-06T13:35:27;15.90;45.70
26262;DHT22;13988;52.446;13.280;2023-04-06T13:37:52;16.80;44.50
26262;DHT22;13988;52.446;13.280;2023-04-06T13:40:19;17.30;45.40
26262;DHT22;13988;52.446;13.280;2023-04-06T13:42:44;16.90;45.40
26262;DHT22;13988;52.446;13.280;2023-04-06T13:45:11;16.60;42.60
26262;DHT22;13988;52.446;13.280;2023-04-06T13:47:37;14.80;43.50
26262;DHT22;13988;52.446;13.280;2023-04-06T13:50:03;15.40;47.90
26262;DHT22;13988;52.446;13.280;2023-04-06T13:52:29;14.50;45.30
26262;DHT22;13988;52.446;13.280;2023-04-06T13:54:55;13.10;49.10
26262;DHT22;13988;52.446;13.280;2023-04-06T13:57:21;14.20;51.40
26262;DHT22;13988;52.446;13.280;2023-04-06T13:59:47;14.30;47.60
26262;DHT22;13988;52.446;13.280;2023-04-06T14:02:13;15.20;48.60
26262;DHT22;13988;52.446;13.280;2023-04-06T14:04:39;15.70;47.80
26262;DHT22;13988;52.446;13.280;2023-04-06T14:07:04;13.60;46.90
26262;DHT22;13988;52.446;13.280;2023-04-06T14:09:33;11.80;50.00
26262;DHT22;13988;52.446;13.280;2023-04-06T14:11:59;11.30;51.80
26262;DHT22;13988;52.446;13.280;2023-04-06T14:14:24;13.00;53.70
26262;DHT22;13988;52.446;13.280;2023-04-06T14:16:51;12.70;48.70
26262;DHT22;13988;52.446;13.280;2023-04-06T14:19:17;13.90;51.60
26262;DHT22;13988;52.446;13.280;2023-04-06T14:21:43;15.90;48.80
26262;DHT22;13988;52.446;13.280;2023-04-06T14:24:10;15.80;47.50
26262;DHT22;13988;52.446;13.280;2023-04-06T14:26:37;16.40;45.40
26262;DHT22;13988;52.446;13.280;2023-04-06T14:29:04;16.60;44.50
26262;DHT22;13988;52.446;13.280;2023-04-06T14:31:30;15.90;45.30
26262;DHT22;13988;52.446;13.280;2023-04-06T14:33:56;15.90;45.90
26262;DHT22;13988;52.446;13.280;2023-04-06T14:36:22;14.90;45.90
26262;DHT22;13988;52.446;13.280;2023-04-06T14:38:48;15.80;47.20
26262;DHT22;13988;52.446;13.280;2023-04-06T14:41:22;14.90;47.10
26262;DHT22;13988;52.446;13.280;2023-04-06T14:43:49;16.10;48.00
26262;DHT22;13988;52.446;13.280;2023-04-06T14:46:15;16.20;45.50
26262;DHT22;13988;52.446;13.280;2023-04-06T14:48:46;13.80;46.70
26262;DHT22;13988;52.446;13.280;2023-04-06T14:51:12;13.10;47.80
26262;DHT22;13988;52.446;13.280;2023-04-06T14:53:38;14.80;50.90
26262;DHT22;13988;52.446;13.280;2023-04-06T14:56:04;14.40;46.40
26262;DHT22;13988;52.446;13.280;2023-04-06T14:58:30;14.60;48.60
26262;DHT22;13988;52.446;13.280;2023-04-06T15:00:59;12.30;49.80
26262;DHT22;13988;52.446;13.280;2023-04-06T15:03:26;12.70;50.80
26262;DHT22;13988;52.446;13.280;2023-04-06T15:05:52;12.80;50.40
26262;DHT22;13988;52.446;13.280;2023-04-06T15:08:18;12.80;51.30
26262;DHT22;13988;52.446;13.280;2023-04-06T15:10:46;12.70;52.00
26262;DHT22;13988;52.446;13.280;2023-04-06T15:13:12;13.00;50.00
26262;DHT22;13988;52.446;13.280;2023-04-06T15:15:38;12.30;50.70
26262;DHT22;13988;52.446;13.280;2023-04-06T15:18:04;12.40;52.40
26262;DHT22;13988;52.446;13.280;2023-04-06T15:20:30;13.10;52.70
26262;DHT22;13988;52.446;13.280;2023-04-06T15:22:56;12.50;52.60
26262;DHT22;13988;52.446;13.280;2023-04-06T15:25:22;12.70;51.60
26262;DHT22;13988;52.446;13.280;2023-04-06T15:27:47;12.90;53.50
26262;DHT22;13988;52.446;13.280;2023-04-06T15:30:13;13.10;52.70